createdAt,value
2023-05-24T00:01:57.108Z,97185.13
2023-05-24T00:05:57.633Z,97180.00
2023-05-24T00:10:00.607Z,97159.13
2023-05-24T00:14:01.309Z,97152.94
2023-05-24T00:18:01.907Z,97173.06
2023-05-24T00:22:02.288Z,97171.41
2023-05-24T00:26:05.175Z,97159.13
2023-05-24T00:30:05.713Z,97164.78
2023-05-24T00:34:06.030Z,97169.06
2023-05-24T00:38:06.280Z,97170.91
2023-05-24T00:42:09.906Z,97162.59
2023-05-24T00:46:23.430Z,97162.34
2023-05-24T00:50:24.372Z,97164.47
2023-05-24T00:54:26.535Z,97169.81
2023-05-24T00:58:31.328Z,97162.84
2023-05-24T01:02:35.400Z,97151.59
2023-05-24T01:06:47.332Z,97154.84
2023-05-24T01:11:01.180Z,97146.81
2023-05-24T01:15:25.686Z,97154.06
2023-05-24T01:20:02.424Z,97136.09
2023-05-24T01:24:20.189Z,97152.44
2023-05-24T01:28:25.214Z,97143.09
2023-05-24T01:32:27.845Z,97155.34
2023-05-24T01:36:28.208Z,97149.72
2023-05-24T01:40:29.003Z,97132.59
2023-05-24T01:44:40.589Z,97147.31
2023-05-24T01:48:53.424Z,97150.53
2023-05-24T01:52:56.866Z,97156.16
2023-05-24T01:57:00.426Z,97146.50
2023-05-24T02:01:04.729Z,97152.59
2023-05-24T02:05:05.259Z,97128.75
2023-05-24T02:09:08.759Z,97157.97
2023-05-24T02:13:09.440Z,97145.16
2023-05-24T02:17:13.260Z,97158.81
2023-05-24T02:21:13.996Z,97145.69
2023-05-24T02:25:14.296Z,97150.47
2023-05-24T02:29:14.576Z,97154.78
2023-05-24T02:33:17.587Z,97138.88
2023-05-24T02:37:18.031Z,97159.41
2023-05-24T02:41:19.118Z,97159.47
2023-05-24T02:45:19.550Z,97157.97
2023-05-24T02:49:22.321Z,97159.56
2023-05-24T02:53:22.534Z,97159.84
2023-05-24T02:57:23.540Z,97155.25
2023-05-24T03:01:24.360Z,97154.19
2023-05-24T03:05:30.883Z,97160.63
2023-05-24T03:09:31.327Z,97162.50
2023-05-24T03:13:33.099Z,97159.53
2023-05-24T03:17:33.986Z,97160.06
2023-05-24T03:21:36.902Z,97163.53
2023-05-24T03:25:38.491Z,97164.75
2023-05-24T03:29:38.972Z,97167.41
2023-05-24T03:33:39.816Z,97165.50
2023-05-24T03:37:42.752Z,97175.19
2023-05-24T03:41:43.433Z,97167.41
2023-05-24T03:45:45.651Z,97175.94
2023-05-24T03:49:46.148Z,97170.00
2023-05-24T03:53:48.957Z,97172.59
2023-05-24T03:57:49.310Z,97173.69
2023-05-24T04:01:49.723Z,97171.06
2023-05-24T04:05:50.378Z,97174.94
2023-05-24T04:09:53.439Z,97183.53
2023-05-24T04:13:56.098Z,97178.22
2023-05-24T04:17:57.152Z,97172.81
2023-05-24T04:21:57.626Z,97178.78
2023-05-24T04:26:01.453Z,97174.53
2023-05-24T04:30:01.951Z,97187.97
2023-05-24T04:34:03.088Z,97168.69
2023-05-24T04:38:03.895Z,97176.75
2023-05-24T04:42:08.038Z,97182.38
2023-05-24T04:46:09.380Z,97179.97
2023-05-24T04:50:11.785Z,97189.59
2023-05-24T04:54:12.225Z,97176.22
2023-05-24T04:58:15.401Z,97193.38
2023-05-24T05:02:15.678Z,97181.00
2023-05-24T05:06:16.022Z,97179.66
2023-05-24T05:10:17.049Z,97174.38
2023-05-24T05:14:20.054Z,97188.28
2023-05-24T05:18:20.478Z,97145.69
2023-05-24T05:22:20.777Z,97176.78
2023-05-24T05:26:21.836Z,97186.97
2023-05-24T05:30:24.709Z,97181.06
2023-05-24T05:34:24.984Z,97184.59
2023-05-24T05:38:25.241Z,97195.59
2023-05-24T05:42:25.869Z,97202.56
2023-05-24T05:46:28.862Z,97198.25
2023-05-24T05:50:29.137Z,97197.69
2023-05-24T05:54:29.361Z,97200.91
2023-05-24T05:58:29.829Z,97209.00
2023-05-24T06:02:32.753Z,97213.81
2023-05-24T06:06:33.471Z,97225.06
2023-05-24T06:10:33.992Z,97230.97
2023-05-24T06:14:34.723Z,97230.44
2023-05-24T06:18:37.684Z,97237.94
2023-05-24T06:22:40.265Z,97221.00
2023-05-24T06:26:40.541Z,97225.59
2023-05-24T06:30:41.457Z,97243.31
2023-05-24T06:34:44.867Z,97242.22
2023-05-24T06:38:45.135Z,97248.88
2023-05-24T06:42:45.405Z,97251.59
2023-05-24T06:46:45.930Z,97237.34
2023-05-24T06:50:48.808Z,97250.00
2023-05-24T06:54:49.115Z,97227.13
2023-05-24T06:58:49.306Z,97252.34
2023-05-24T07:02:50.071Z,97245.47
2023-05-24T07:06:52.993Z,97268.50
2023-05-24T07:10:53.787Z,97264.47
2023-05-24T07:14:56.357Z,97275.47
2023-05-24T07:18:58.855Z,97266.88
2023-05-24T07:23:02.196Z,97268.38
2023-05-24T07:27:02.564Z,97267.06
2023-05-24T07:31:03.536Z,97264.22
2023-05-24T07:35:04.014Z,97270.63
2023-05-24T07:39:10.091Z,97263.66
2023-05-24T07:43:10.279Z,97271.16
2023-05-24T07:47:10.552Z,97278.66
2023-05-24T07:51:10.896Z,97280.84
2023-05-24T07:55:14.829Z,97277.88
2023-05-24T07:59:15.699Z,97280.81
2023-05-24T08:03:20.720Z,97266.88
2023-05-24T08:07:21.583Z,97251.44
2023-05-24T08:11:24.727Z,97263.84
2023-05-24T08:15:25.141Z,97270.75
2023-05-24T08:19:25.716Z,97263.78
2023-05-24T08:23:26.385Z,97255.38
2023-05-24T08:27:31.698Z,97265.59
2023-05-24T08:31:33.143Z,97279.84
2023-05-24T08:35:36.196Z,97282.06
2023-05-24T08:39:36.494Z,97265.59
2023-05-24T08:43:41.330Z,97292.06
2023-05-24T08:47:47.146Z,97299.25
2023-05-24T08:51:49.015Z,97290.47
2023-05-24T08:55:49.452Z,97292.66
2023-05-24T08:59:56.297Z,97305.34
2023-05-24T09:03:58.944Z,97283.81
2023-05-24T09:08:01.886Z,97295.22
2023-05-24T09:12:08.907Z,97285.97
2023-05-24T09:16:12.093Z,97310.53
2023-05-24T09:20:14.122Z,97304.28
2023-05-24T09:24:15.646Z,97293.75
2023-05-24T09:28:17.918Z,97303.31
2023-05-24T09:32:24.387Z,97316.09
2023-05-24T09:36:25.306Z,97312.72
2023-05-24T09:40:26.643Z,97274.31
2023-05-24T09:44:28.785Z,97304.19
2023-05-24T09:48:32.759Z,97297.16
2023-05-24T09:52:34.070Z,97274.59
2023-05-24T09:56:37.674Z,97298.69
2023-05-24T10:00:40.345Z,97271.47
2023-05-24T10:04:43.446Z,97284.06
2023-05-24T10:08:44.156Z,97276.03
2023-05-24T10:12:47.220Z,97274.84
2023-05-24T10:16:48.623Z,97283.47
2023-05-24T10:20:54.220Z,97290.00
2023-05-24T10:25:00.814Z,97264.75
2023-05-24T10:29:09.736Z,97268.06
2023-05-24T10:33:12.256Z,97269.88
2023-05-24T10:37:16.093Z,97251.47
2023-05-24T10:41:16.782Z,97269.19
2023-05-24T10:45:36.181Z,97275.00
2023-05-24T10:49:37.087Z,97277.22
2023-05-24T10:58:15.992Z,97275.94
2023-05-24T11:02:16.805Z,97286.13
2023-05-24T11:06:18.223Z,97282.34
2023-05-24T11:10:33.950Z,97298.19
2023-05-24T11:14:41.223Z,97289.31
2023-05-24T11:18:41.545Z,97263.19
2023-05-24T11:22:42.634Z,97282.94
2023-05-24T11:26:43.226Z,97288.16
2023-05-24T11:30:48.481Z,97277.03
2023-05-24T11:34:50.130Z,97284.69
2023-05-24T11:38:51.890Z,97284.06
2023-05-24T11:42:52.924Z,97295.56
2023-05-24T11:47:02.164Z,97287.28
2023-05-24T11:51:05.871Z,97293.16
2023-05-24T11:55:08.790Z,97301.34
2023-05-24T11:59:20.505Z,97305.78
2023-05-24T12:03:23.864Z,97303.09
2023-05-24T12:07:27.288Z,97297.19
2023-05-24T12:11:28.745Z,97307.53
2023-05-24T12:15:32.475Z,97262.06
2023-05-24T12:19:37.745Z,97303.53
2023-05-24T12:23:39.915Z,97301.28
2023-05-24T12:27:48.104Z,97294.59
2023-05-24T12:31:52.327Z,97292.41
2023-05-24T12:35:59.405Z,97290.22
2023-05-24T12:39:59.926Z,97275.91
2023-05-24T12:44:01.742Z,97290.72
2023-05-24T12:48:05.330Z,97284.78
2023-05-24T12:52:09.450Z,97290.19
2023-05-24T12:56:11.745Z,97280.78
2023-05-24T13:00:16.316Z,97274.19
2023-05-24T13:04:18.393Z,97283.91
2023-05-24T13:08:22.254Z,97285.19
2023-05-24T13:12:23.036Z,97291.22
2023-05-24T13:16:23.945Z,97296.22
2023-05-24T13:20:24.770Z,97284.31
2023-05-24T13:24:28.519Z,97281.91
2023-05-24T13:28:29.319Z,97281.94
2023-05-24T13:32:30.069Z,97277.41
2023-05-24T13:36:31.017Z,97273.16
2023-05-24T13:40:34.586Z,97276.94
2023-05-24T13:44:35.577Z,97270.63
2023-05-24T13:48:36.781Z,97279.88
2023-05-24T13:52:39.820Z,97272.47
2023-05-24T13:56:45.152Z,97268.66
2023-05-24T14:00:47.779Z,97270.41
2023-05-24T14:04:49.003Z,97269.19
2023-05-24T14:08:49.649Z,97251.28
2023-05-24T14:13:07.939Z,97269.72
2023-05-24T14:17:13.741Z,97258.28
2023-05-24T14:21:14.568Z,97250.06
2023-05-24T14:25:15.593Z,97251.19
2023-05-24T14:29:20.626Z,97249.97
2023-05-24T14:33:21.442Z,97253.28
2023-05-24T14:37:22.690Z,97252.84
2023-05-24T14:41:24.545Z,97253.03
2023-05-24T14:45:28.780Z,97235.97
2023-05-24T14:49:29.589Z,97246.56
2023-05-24T14:53:31.936Z,97249.16
2023-05-24T14:57:32.806Z,97246.38
2023-05-24T15:01:37.044Z,97247.19
2023-05-24T15:05:39.250Z,97228.00
2023-05-24T15:09:40.416Z,97233.50
2023-05-24T15:13:41.706Z,97245.91
2023-05-24T15:17:45.155Z,97224.47
2023-05-24T15:21:45.841Z,97246.38
2023-05-24T15:25:48.161Z,97248.19
2023-05-24T15:29:49.610Z,97242.69
2023-05-24T15:33:53.141Z,97240.75
2023-05-24T15:37:53.697Z,97243.16
2023-05-24T15:41:54.128Z,97239.47
2023-05-24T15:45:54.928Z,97237.97
2023-05-24T15:49:58.389Z,97236.38
2023-05-24T15:53:58.997Z,97237.47
2023-05-24T15:58:01.131Z,97240.88
2023-05-24T16:02:02.041Z,97232.56
2023-05-24T16:06:05.315Z,97233.06
2023-05-24T16:10:05.824Z,97230.00
2023-05-24T16:14:07.102Z,97234.19
2023-05-24T16:18:08.428Z,97225.28
2023-05-24T16:22:15.087Z,97213.34
2023-05-24T16:26:15.949Z,97231.13
2023-05-24T16:30:17.086Z,97220.69
2023-05-24T16:34:23.881Z,97208.53
2023-05-24T16:38:28.918Z,97214.44
2023-05-24T16:42:29.662Z,97216.78
2023-05-24T16:46:30.219Z,97216.28
2023-05-24T16:50:31.082Z,97220.31
2023-05-24T16:54:34.145Z,97215.47
2023-05-24T16:58:34.681Z,97234.25
2023-05-24T17:02:36.193Z,97228.25
2023-05-24T17:06:36.828Z,97213.25
2023-05-24T17:10:43.593Z,97226.31
2023-05-24T17:14:47.595Z,97227.25
2023-05-24T17:18:49.620Z,97223.31
2023-05-24T17:22:50.165Z,97222.38
2023-05-24T17:26:53.510Z,97238.22
2023-05-24T17:30:57.102Z,97232.06
2023-05-24T17:35:00.973Z,97229.94
2023-05-24T17:39:02.862Z,97240.56
2023-05-24T17:43:06.613Z,97247.09
2023-05-24T17:47:07.806Z,97231.34
2023-05-24T17:51:11.508Z,97246.47
2023-05-24T17:55:15.457Z,97251.34
2023-05-24T17:59:18.634Z,97248.44
2023-05-24T18:03:22.375Z,97256.25
2023-05-24T18:07:23.061Z,97271.19
2023-05-24T18:11:24.782Z,97262.34
2023-05-24T18:15:28.677Z,97279.13
2023-05-24T18:19:31.288Z,97287.03
2023-05-24T18:23:39.537Z,97284.34
2023-05-24T18:27:41.494Z,97278.09
2023-05-24T18:31:46.493Z,97286.34
2023-05-24T18:35:48.032Z,97286.38
2023-05-24T18:39:48.633Z,97282.56
2023-05-24T18:43:49.937Z,97283.16
2023-05-24T18:47:54.461Z,97285.38
2023-05-24T18:52:07.424Z,97289.66
2023-05-24T18:56:08.924Z,97293.38
2023-05-24T19:00:11.398Z,97303.69
2023-05-24T19:04:16.228Z,97311.56
2023-05-24T19:08:16.838Z,97320.56
2023-05-24T19:12:17.505Z,97318.66
2023-05-24T19:16:23.212Z,97319.44
2023-05-24T19:20:30.137Z,97314.03
2023-05-24T19:24:30.919Z,97333.84
2023-05-24T19:28:31.613Z,97338.84
2023-05-24T19:32:33.426Z,97336.94
2023-05-24T19:36:37.783Z,97349.19
2023-05-24T19:40:47.545Z,97349.69
2023-05-24T19:44:52.005Z,97358.03
2023-05-24T19:48:53.728Z,97354.63
2023-05-24T19:52:58.462Z,97368.50
2023-05-24T19:57:02.231Z,97374.31
2023-05-24T20:01:04.405Z,97376.72
2023-05-24T20:05:09.466Z,97378.84
2023-05-24T20:09:13.731Z,97377.41
2023-05-24T20:13:14.721Z,97363.34
2023-05-24T20:17:17.291Z,97367.38
2023-05-24T20:21:23.264Z,97389.38
2023-05-24T20:25:37.705Z,97349.63
2023-05-24T20:29:38.696Z,97398.59
2023-05-24T20:33:39.928Z,97387.84
2023-05-24T20:37:42.565Z,97400.56
2023-05-24T20:41:46.403Z,97397.56
2023-05-24T20:45:47.893Z,97404.06
2023-05-24T20:49:48.778Z,97406.47
2023-05-24T20:53:51.999Z,97397.84
2023-05-24T20:57:55.865Z,97422.56
2023-05-24T21:01:57.546Z,97416.13
2023-05-24T21:05:59.140Z,97410.66
2023-05-24T21:10:00.390Z,97418.22
2023-05-24T21:14:04.376Z,97427.31
2023-05-24T21:18:05.906Z,97433.09
2023-05-24T21:22:07.590Z,97439.22
2023-05-24T21:26:11.261Z,97431.13
2023-05-24T21:30:18.173Z,97441.16
2023-05-24T21:34:19.748Z,97445.84
2023-05-24T21:38:21.190Z,97426.94
2023-05-24T21:42:22.083Z,97452.78
2023-05-24T21:46:25.642Z,97447.25
2023-05-24T21:50:27.032Z,97432.66
2023-05-24T21:54:28.995Z,97447.97
2023-05-24T21:58:30.533Z,97463.13
2023-05-24T22:02:35.127Z,97461.22
2023-05-24T22:06:36.754Z,97474.38
2023-05-24T22:10:37.935Z,97438.88
2023-05-24T22:14:39.236Z,97465.19
2023-05-24T22:18:43.173Z,97470.06
2023-05-24T22:22:49.143Z,97468.56
2023-05-24T22:26:50.326Z,97455.03
2023-05-24T22:30:51.313Z,97471.13
2023-05-24T22:34:55.095Z,97484.16
2023-05-24T22:38:55.748Z,97476.63
2023-05-24T22:42:56.939Z,97486.47
2023-05-24T22:46:58.171Z,97473.41
2023-05-24T22:51:02.461Z,97475.34
2023-05-24T22:55:03.841Z,97466.28
2023-05-24T22:59:04.899Z,97470.50
2023-05-24T23:03:05.818Z,97475.91
2023-05-24T23:07:09.667Z,97478.59
2023-05-24T23:11:11.285Z,97480.69
2023-05-24T23:15:18.633Z,97476.31
2023-05-24T23:19:20.345Z,97477.03
2023-05-24T23:23:25.059Z,97475.28
2023-05-24T23:27:26.147Z,97480.19
2023-05-24T23:31:27.176Z,97486.31
2023-05-24T23:35:28.199Z,97490.94
2023-05-24T23:39:35.681Z,97487.53
2023-05-24T23:43:36.762Z,97487.84
2023-05-24T23:47:38.271Z,97512.75
2023-05-24T23:51:39.172Z,97495.00
2023-05-24T23:55:43.253Z,97488.03
2023-05-24T23:59:44.930Z,97472.50
